Portada
METAR-TAF:

METAR-TAF

Aeroports :

Leh, Índia

latitud: 34-08-09N, longitud: 077-32-47E, altitud: 3256 m

METAR: manca

Hora: 05:34 (00:04 UTC)

Pronòstic

L'informe es va fer fa 14 hores i 34 minuts, a les 09:30 UTC
Pronòstic vàlid del 21 a les 18 UTC al 22 a les 12 UTC
Vent 10 kt del Oest
Visibilitat: 6000 m
Escasses núvols a una alçada de 7000 ft
Cel ennuvolat a una alçada de 10000 ft
Temporalment
l' 21 a les 20 UTC al 21 a les 22 UTC
Vent 15 kt del Oest amb ràfegues de 25 kt
Evolucionant progressivament
l' 22 a les 06 UTC al 22 a les 08 UTC
Escasses núvols a una alçada de 6000 ft
Núvols disperses a una alçada de 7000 ft

TAF: VILH 210930Z 2118/2212 27010KT 6000 FEW070 BKN100 TEMPO 2120/2122 28015G25KT BECMG 2206/2208 FEW060 SCT070

Observacions i pronòstics meteorològics de més de 4000 aeroports (METAR i TAF).

Les estacions disponibles són els punts grocs i vermells al mapa.

Posi el ratolí al punt desitjat per veure el nom de l'estació.

Feu clic per veure les observacions i els pronòstics meteorològics.

Per canviar el mapa: feu clic els botons verds amb una creu de color negre per apropar; al botó verd amb un guió per allunyar la imatge; o en les fletxes verdes per a mapes adjacents.


METAR-TAF: